createdAt,value
2023-09-21T00:01:19.927Z,0.65
2023-09-21T00:03:47.029Z,0.63
2023-09-21T00:06:18.900Z,0.63
2023-09-21T00:08:49.293Z,0.55
2023-09-21T00:11:16.331Z,0.95
2023-09-21T00:13:45.825Z,0.68
2023-09-21T00:16:13.110Z,0.63
2023-09-21T00:18:45.381Z,0.60
2023-09-21T00:21:15.416Z,0.68
2023-09-21T00:23:45.043Z,0.77
2023-09-21T00:26:15.434Z,0.60
2023-09-21T00:28:47.864Z,0.50
2023-09-21T00:31:15.227Z,0.50
2023-09-21T00:33:42.392Z,0.75
2023-09-21T00:36:10.896Z,0.55
2023-09-21T00:38:42.947Z,0.70
2023-09-21T00:41:10.303Z,0.70
2023-09-21T00:43:40.386Z,0.70
2023-09-21T00:46:11.993Z,0.57
2023-09-21T00:48:43.964Z,0.55
2023-09-21T00:51:15.785Z,0.77
2023-09-21T00:53:46.026Z,0.47
2023-09-21T00:56:20.089Z,0.95
2023-09-21T00:58:51.796Z,0.70
2023-09-21T01:01:29.319Z,0.60
2023-09-21T01:04:07.614Z,0.70
2023-09-21T01:06:34.953Z,0.52
2023-09-21T01:09:04.948Z,0.70
2023-09-21T01:11:38.917Z,0.60
2023-09-21T01:14:07.033Z,0.60
2023-09-21T01:16:34.015Z,0.70
2023-09-21T01:19:07.703Z,0.98
2023-09-21T01:21:39.152Z,0.60
2023-09-21T01:24:06.775Z,1.30
2023-09-21T01:26:34.034Z,0.77
2023-09-21T01:29:02.788Z,0.57
2023-09-21T01:31:31.111Z,0.52
2023-09-21T01:34:00.464Z,0.63
2023-09-21T01:36:29.988Z,0.52
2023-09-21T01:39:00.029Z,0.60
2023-09-21T01:41:27.846Z,0.60
2023-09-21T01:43:59.554Z,0.70
2023-09-21T01:46:27.839Z,0.88
2023-09-21T01:48:55.635Z,0.70
2023-09-21T01:51:22.957Z,0.63
2023-09-21T01:53:50.210Z,0.80
2023-09-21T01:56:19.600Z,0.88
2023-09-21T01:58:47.345Z,0.70
2023-09-21T02:01:19.632Z,0.63
2023-09-21T02:03:47.223Z,0.57
2023-09-21T02:06:16.889Z,0.60
2023-09-21T02:08:45.506Z,1.25
2023-09-21T02:11:15.263Z,0.50
2023-09-21T02:13:42.562Z,0.40
2023-09-21T02:16:12.302Z,0.52
2023-09-21T02:18:41.823Z,0.70
2023-09-21T02:21:12.891Z,0.55
2023-09-21T02:23:40.160Z,0.60
2023-09-21T02:26:10.922Z,0.45
2023-09-21T02:28:40.487Z,0.60
2023-09-21T02:31:14.101Z,0.40
2023-09-21T02:33:44.292Z,0.60
2023-09-21T02:36:20.317Z,0.80
2023-09-21T02:38:50.399Z,0.45
2023-09-21T02:41:17.738Z,0.52
2023-09-21T02:43:47.259Z,0.60
2023-09-21T02:46:14.783Z,0.70
2023-09-21T02:48:47.562Z,0.70
2023-09-21T02:51:17.261Z,0.73
2023-09-21T02:53:45.158Z,0.70
2023-09-21T02:56:15.594Z,0.63
2023-09-21T02:58:47.404Z,0.60
2023-09-21T03:01:18.254Z,0.77
2023-09-21T03:03:45.407Z,0.60
2023-09-21T03:06:17.291Z,0.90
2023-09-21T03:08:46.471Z,0.50
2023-09-21T03:11:13.781Z,0.60
2023-09-21T03:13:40.731Z,0.65
2023-09-21T03:16:11.835Z,0.50
2023-09-21T03:18:39.437Z,0.60
2023-09-21T03:21:16.475Z,1.00
2023-09-21T03:23:47.484Z,0.50
2023-09-21T03:26:15.394Z,0.60
2023-09-21T03:28:46.228Z,0.65
2023-09-21T03:31:14.153Z,0.40
2023-09-21T03:33:41.167Z,0.52
2023-09-21T03:36:15.300Z,0.70
2023-09-21T03:38:42.952Z,0.57
2023-09-21T03:41:11.256Z,0.68
2023-09-21T03:43:40.361Z,0.68
2023-09-21T03:46:07.349Z,0.77
2023-09-21T03:48:36.923Z,0.88
2023-09-21T03:51:05.342Z,0.60
2023-09-21T03:53:34.646Z,0.95
2023-09-21T03:56:02.646Z,0.57
2023-09-21T03:58:31.931Z,0.77
2023-09-21T04:01:06.003Z,0.68
2023-09-21T04:03:37.960Z,0.70
2023-09-21T04:06:08.046Z,0.70
2023-09-21T04:08:35.293Z,0.70
2023-09-21T04:11:04.803Z,0.55
2023-09-21T04:13:34.108Z,1.60
2023-09-21T04:16:05.686Z,0.60
2023-09-21T04:18:32.966Z,0.70
2023-09-21T04:21:16.368Z,0.68
2023-09-21T04:23:49.340Z,0.85
2023-09-21T04:26:21.129Z,1.15
2023-09-21T04:28:49.638Z,0.70
2023-09-21T04:31:16.955Z,0.77
2023-09-21T04:33:43.935Z,0.73
2023-09-21T04:36:15.690Z,0.75
2023-09-21T04:38:43.650Z,0.60
2023-09-21T04:41:16.862Z,0.70
2023-09-21T04:43:47.614Z,0.85
2023-09-21T04:46:14.872Z,0.85
2023-09-21T04:48:45.089Z,0.50
2023-09-21T04:51:13.650Z,0.60
2023-09-21T04:53:42.733Z,0.77
2023-09-21T04:56:13.064Z,0.95
2023-09-21T04:58:40.133Z,0.70
2023-09-21T05:01:11.701Z,0.68
2023-09-21T05:03:39.340Z,0.45
2023-09-21T05:06:06.595Z,0.70
2023-09-21T05:08:37.231Z,1.95
2023-09-21T05:11:05.403Z,0.60
2023-09-21T05:13:34.151Z,0.60
2023-09-21T05:16:01.822Z,0.68
2023-09-21T05:18:28.868Z,0.70
2023-09-21T05:20:56.279Z,0.63
2023-09-21T05:23:23.367Z,0.55
2023-09-21T05:25:50.810Z,0.90
2023-09-21T05:28:23.076Z,0.85
2023-09-21T05:30:50.022Z,0.68
2023-09-21T05:33:19.420Z,0.90
2023-09-21T05:35:52.580Z,0.60
2023-09-21T05:38:21.832Z,0.85
2023-09-21T05:40:51.182Z,0.75
2023-09-21T05:43:18.633Z,1.00
2023-09-21T05:45:47.691Z,0.65
2023-09-21T05:48:19.180Z,0.75
2023-09-21T05:50:48.774Z,0.82
2023-09-21T05:53:15.736Z,1.10
2023-09-21T05:55:47.207Z,0.70
2023-09-21T05:58:14.172Z,0.77
2023-09-21T06:00:43.763Z,0.82
2023-09-21T06:03:11.010Z,1.02
2023-09-21T06:05:38.176Z,1.10
2023-09-21T06:08:07.432Z,0.88
2023-09-21T06:10:34.519Z,0.90
2023-09-21T06:13:01.487Z,0.90
2023-09-21T06:15:31.528Z,1.20
2023-09-21T06:17:58.523Z,0.90
2023-09-21T06:20:30.445Z,1.10
2023-09-21T06:22:59.743Z,1.40
2023-09-21T06:25:31.873Z,1.00
2023-09-21T06:27:58.852Z,1.17
2023-09-21T06:30:25.887Z,1.20
2023-09-21T06:32:52.921Z,1.00
2023-09-21T06:35:21.026Z,1.15
2023-09-21T06:37:49.217Z,1.38
2023-09-21T06:40:16.225Z,1.20
2023-09-21T06:42:43.226Z,1.63
2023-09-21T06:45:12.373Z,1.70
2023-09-21T06:47:39.371Z,1.67
2023-09-21T06:50:09.242Z,1.25
2023-09-21T06:52:36.304Z,1.25
2023-09-21T06:55:08.035Z,1.63
2023-09-21T06:57:37.465Z,1.50
2023-09-21T07:00:10.990Z,1.50
2023-09-21T07:02:40.310Z,1.30
2023-09-21T07:05:09.059Z,1.50
2023-09-21T07:07:36.036Z,1.38
2023-09-21T07:10:06.805Z,0.90
2023-09-21T07:12:33.806Z,1.10
2023-09-21T07:15:01.038Z,1.60
2023-09-21T07:17:30.584Z,1.00
2023-09-21T07:19:57.581Z,1.25
2023-09-21T07:22:24.594Z,1.02
2023-09-21T07:24:51.545Z,1.25
2023-09-21T07:27:22.005Z,1.30
2023-09-21T07:29:49.123Z,1.40
2023-09-21T07:32:16.702Z,1.17
2023-09-21T07:34:49.856Z,1.15
2023-09-21T07:37:21.559Z,1.10
2023-09-21T07:39:50.689Z,1.20
2023-09-21T07:42:17.693Z,1.40
2023-09-21T07:44:49.830Z,1.23
2023-09-21T07:47:19.131Z,1.23
2023-09-21T07:49:46.133Z,1.30
2023-09-21T07:52:15.574Z,1.30
2023-09-21T07:54:45.041Z,1.40
2023-09-21T07:57:12.015Z,1.20
2023-09-21T07:59:41.260Z,1.17
2023-09-21T08:02:08.199Z,1.20
2023-09-21T08:04:42.726Z,1.05
2023-09-21T08:07:10.076Z,0.90
2023-09-21T08:09:40.370Z,1.05
2023-09-21T08:12:07.576Z,1.30
2023-09-21T08:14:39.315Z,1.30
2023-09-21T08:17:06.255Z,1.10
2023-09-21T08:19:36.797Z,1.08
2023-09-21T08:22:04.003Z,0.90
2023-09-21T08:24:35.863Z,1.10
2023-09-21T08:27:03.499Z,1.17
2023-09-21T08:29:30.930Z,1.23
2023-09-21T08:32:00.408Z,1.27
2023-09-21T08:34:29.487Z,1.23
2023-09-21T08:36:58.745Z,1.08
2023-09-21T08:39:26.344Z,1.00
2023-09-21T08:41:55.564Z,1.20
2023-09-21T08:44:23.187Z,1.00
2023-09-21T08:46:52.565Z,1.20
2023-09-21T08:49:19.530Z,0.88
2023-09-21T08:51:48.603Z,0.98
2023-09-21T08:54:18.294Z,1.35
2023-09-21T08:56:55.087Z,1.10
2023-09-21T08:59:22.249Z,1.33
2023-09-21T09:01:50.005Z,0.70
2023-09-21T09:04:22.997Z,1.10
2023-09-21T09:06:52.462Z,0.90
2023-09-21T09:09:21.794Z,1.38
2023-09-21T09:11:48.861Z,1.08
2023-09-21T09:14:19.536Z,1.00
2023-09-21T09:16:47.559Z,0.95
2023-09-21T09:19:14.995Z,1.00
2023-09-21T09:21:42.382Z,1.30
2023-09-21T09:24:15.967Z,1.52
2023-09-21T09:26:45.362Z,1.20
2023-09-21T09:29:19.102Z,1.25
2023-09-21T09:31:49.318Z,0.90
2023-09-21T09:34:19.151Z,0.60
2023-09-21T09:36:48.204Z,0.90
2023-09-21T09:39:20.175Z,0.88
2023-09-21T09:41:50.866Z,1.13
2023-09-21T09:44:24.166Z,0.95
2023-09-21T09:46:56.205Z,1.33
2023-09-21T09:49:31.678Z,0.80
2023-09-21T09:52:01.282Z,0.80
2023-09-21T09:54:29.815Z,1.00
2023-09-21T09:56:59.200Z,1.08
2023-09-21T09:59:28.178Z,1.13
2023-09-21T10:01:57.254Z,1.02
2023-09-21T10:04:34.590Z,1.38
2023-09-21T10:07:07.742Z,1.13
2023-09-21T10:09:35.879Z,1.30
2023-09-21T10:12:04.936Z,1.17
2023-09-21T10:14:39.525Z,1.33
2023-09-21T10:17:11.572Z,1.10
2023-09-21T10:19:44.685Z,2.90
2023-09-21T10:22:25.299Z,1.30
2023-09-21T10:24:54.525Z,0.90
2023-09-21T10:27:25.493Z,1.15
2023-09-21T10:30:08.619Z,1.23
2023-09-21T10:32:48.645Z,1.15
2023-09-21T10:35:44.371Z,0.82
2023-09-21T10:38:20.715Z,1.27
2023-09-21T10:40:47.775Z,1.27
2023-09-21T10:43:41.486Z,1.35
2023-09-21T10:46:23.946Z,1.17
2023-09-21T10:49:08.359Z,1.50
2023-09-21T10:51:43.264Z,1.95
2023-09-21T10:54:15.073Z,2.38
2023-09-21T10:56:48.048Z,1.90
2023-09-21T10:59:15.006Z,1.67
2023-09-21T11:01:42.237Z,1.88
2023-09-21T11:04:09.294Z,1.60
2023-09-21T11:06:38.452Z,2.45
2023-09-21T11:09:09.135Z,1.77
2023-09-21T11:11:36.269Z,1.27
2023-09-21T11:14:06.773Z,1.33
2023-09-21T11:16:33.958Z,0.98
2023-09-21T11:19:04.220Z,1.10
2023-09-21T11:21:33.317Z,1.02
2023-09-21T11:24:00.310Z,1.30
2023-09-21T11:26:28.600Z,1.00
2023-09-21T11:28:59.403Z,0.90
2023-09-21T11:31:29.369Z,1.02
2023-09-21T11:34:12.687Z,1.08
2023-09-21T11:36:44.070Z,1.20
2023-09-21T11:39:12.523Z,1.25
2023-09-21T11:41:41.954Z,0.93
2023-09-21T11:44:08.939Z,0.85
2023-09-21T11:46:36.008Z,1.20
2023-09-21T11:49:05.135Z,1.02
2023-09-21T11:51:32.273Z,0.93
2023-09-21T11:54:00.810Z,1.00
2023-09-21T11:56:27.838Z,1.23
2023-09-21T11:59:00.120Z,1.10
2023-09-21T12:01:29.332Z,0.82
2023-09-21T12:03:58.814Z,0.90
2023-09-21T12:06:29.011Z,1.05
2023-09-21T12:11:26.231Z,0.70
2023-09-21T12:13:56.373Z,0.93
2023-09-21T12:16:28.263Z,0.90
2023-09-21T12:19:02.441Z,1.20
2023-09-21T12:21:29.440Z,0.88
2023-09-21T12:24:00.159Z,0.80
2023-09-21T12:26:29.572Z,0.80
2023-09-21T12:28:58.984Z,1.00
2023-09-21T12:31:45.005Z,1.17
2023-09-21T12:34:23.232Z,1.02
2023-09-21T12:36:52.989Z,1.00
2023-09-21T12:39:20.444Z,0.98
2023-09-21T12:41:47.608Z,1.20
2023-09-21T12:44:14.641Z,1.00
2023-09-21T12:46:43.770Z,0.77
2023-09-21T12:49:12.037Z,1.00
2023-09-21T12:51:39.139Z,0.85
2023-09-21T12:54:08.445Z,0.77
2023-09-21T12:56:35.603Z,1.10
2023-09-21T12:59:02.604Z,0.80
2023-09-21T13:01:29.773Z,0.90
2023-09-21T13:04:01.286Z,1.20
2023-09-21T13:06:31.094Z,1.42
2023-09-21T13:09:00.780Z,0.85
2023-09-21T13:11:27.868Z,1.02
2023-09-21T13:13:54.932Z,0.98
2023-09-21T13:16:21.937Z,1.15
2023-09-21T13:18:51.343Z,0.98
2023-09-21T13:21:20.658Z,0.95
2023-09-21T13:23:57.002Z,0.95
2023-09-21T13:26:26.686Z,0.93
2023-09-21T13:28:53.678Z,1.10
2023-09-21T13:31:26.349Z,0.90
2023-09-21T13:33:56.946Z,0.80
2023-09-21T13:36:28.759Z,1.10
2023-09-21T13:39:00.627Z,1.00
2023-09-21T13:41:27.637Z,0.93
2023-09-21T13:43:54.680Z,1.00
2023-09-21T13:46:21.697Z,0.73
2023-09-21T13:48:57.313Z,0.70
2023-09-21T13:51:24.375Z,0.80
2023-09-21T13:53:51.829Z,0.80
2023-09-21T13:56:21.537Z,0.77
2023-09-21T13:58:48.554Z,0.70
2023-09-21T14:01:19.962Z,1.00
2023-09-21T14:03:52.157Z,1.00
2023-09-21T14:06:21.716Z,0.68
2023-09-21T14:08:48.915Z,0.90
2023-09-21T14:11:18.487Z,0.93
2023-09-21T14:13:45.491Z,0.90
2023-09-21T14:16:12.565Z,1.15
2023-09-21T14:18:43.446Z,0.70
2023-09-21T14:21:10.794Z,0.60
2023-09-21T14:23:37.897Z,0.60
2023-09-21T14:26:05.111Z,0.85
2023-09-21T14:28:36.918Z,0.63
2023-09-21T14:31:08.857Z,0.70
2023-09-21T14:33:35.978Z,0.80
2023-09-21T14:36:05.321Z,1.15
2023-09-21T14:38:32.426Z,0.50
2023-09-21T14:40:59.564Z,0.60
2023-09-21T14:43:26.561Z,0.60
2023-09-21T14:45:54.014Z,0.50
2023-09-21T14:48:21.207Z,0.50
2023-09-21T14:50:48.233Z,0.55
2023-09-21T14:53:17.722Z,0.50
2023-09-21T14:55:45.325Z,0.60
2023-09-21T14:58:17.170Z,1.23
2023-09-21T15:00:46.406Z,0.47
2023-09-21T15:03:15.310Z,0.73
2023-09-21T15:05:42.421Z,0.60
2023-09-21T15:08:13.574Z,1.10
2023-09-21T15:10:41.948Z,0.90
2023-09-21T15:13:11.089Z,0.93
2023-09-21T15:15:38.322Z,0.73
2023-09-21T15:18:05.586Z,0.80
2023-09-21T15:20:32.756Z,0.83
2023-09-21T15:22:59.696Z,0.80
2023-09-21T15:25:26.648Z,0.75
2023-09-21T15:27:56.680Z,0.95
2023-09-21T15:30:25.143Z,0.82
2023-09-21T15:32:52.350Z,1.27
2023-09-21T15:35:26.155Z,0.65
2023-09-21T15:37:56.189Z,0.90
2023-09-21T15:40:23.974Z,0.95
2023-09-21T15:42:52.478Z,0.82
2023-09-21T15:45:21.582Z,1.00
2023-09-21T15:47:50.904Z,1.65
2023-09-21T15:50:22.751Z,1.20
2023-09-21T15:52:52.579Z,0.90
2023-09-21T15:55:21.844Z,0.68
2023-09-21T15:57:48.951Z,1.77
2023-09-21T16:00:18.281Z,0.88
2023-09-21T16:02:46.032Z,0.90
2023-09-21T16:05:13.299Z,0.93
2023-09-21T16:07:42.676Z,0.95
2023-09-21T16:10:11.645Z,1.10
2023-09-21T16:12:39.013Z,0.80
2023-09-21T16:15:08.672Z,1.33
2023-09-21T16:17:36.871Z,0.90
2023-09-21T16:20:06.511Z,1.00
2023-09-21T16:22:33.776Z,1.00
2023-09-21T16:25:00.758Z,0.88
2023-09-21T16:27:27.727Z,0.75
2023-09-21T16:29:59.392Z,1.00
2023-09-21T16:32:28.817Z,0.90
2023-09-21T16:34:55.879Z,1.20
2023-09-21T16:37:22.861Z,1.20
2023-09-21T16:39:49.946Z,1.40
2023-09-21T16:42:17.101Z,1.30
2023-09-21T16:44:44.348Z,1.90
2023-09-21T16:47:14.526Z,2.00
2023-09-21T16:49:43.854Z,2.20
2023-09-21T16:52:15.938Z,2.03
2023-09-21T16:54:44.670Z,2.05
2023-09-21T16:57:14.163Z,2.17
2023-09-21T16:59:43.634Z,2.00
2023-09-21T17:02:12.859Z,2.25
2023-09-21T17:04:41.137Z,1.63
2023-09-21T17:07:08.106Z,1.52
2023-09-21T17:09:35.126Z,1.58
2023-09-21T17:12:02.859Z,1.30
2023-09-21T17:14:32.271Z,1.95
2023-09-21T17:17:01.462Z,1.77
2023-09-21T17:19:28.413Z,1.30
2023-09-21T17:21:57.866Z,1.30
2023-09-21T17:24:27.492Z,1.17
2023-09-21T17:26:54.634Z,1.13
2023-09-21T17:29:21.588Z,1.40
2023-09-21T17:31:50.844Z,1.40
2023-09-21T17:34:17.878Z,1.40
2023-09-21T17:36:44.973Z,1.25
2023-09-21T17:39:14.328Z,1.30
2023-09-21T17:41:46.302Z,1.40
2023-09-21T17:44:13.250Z,1.30
2023-09-21T17:46:40.356Z,1.25
2023-09-21T17:49:09.611Z,1.75
2023-09-21T17:51:42.189Z,1.60
2023-09-21T17:54:11.704Z,1.80
2023-09-21T17:56:39.406Z,2.25
2023-09-21T17:59:06.418Z,2.42
2023-09-21T18:01:36.052Z,2.50
2023-09-21T18:04:06.606Z,2.65
2023-09-21T18:06:36.420Z,1.70
2023-09-21T18:09:07.026Z,1.83
2023-09-21T18:11:37.293Z,1.73
2023-09-21T18:14:05.103Z,1.70
2023-09-21T18:16:32.541Z,1.77
2023-09-21T18:19:05.522Z,1.60
2023-09-21T18:21:34.740Z,1.75
2023-09-21T18:24:01.751Z,1.50
2023-09-21T18:26:33.552Z,1.65
2023-09-21T18:29:02.797Z,1.58
2023-09-21T18:31:30.070Z,1.70
2023-09-21T18:33:59.833Z,1.38
2023-09-21T18:36:26.874Z,1.30
2023-09-21T18:38:53.840Z,1.05
2023-09-21T18:41:23.154Z,1.45
2023-09-21T18:43:52.564Z,1.63
2023-09-21T18:46:19.641Z,1.60
2023-09-21T18:48:48.780Z,1.30
2023-09-21T18:51:15.934Z,1.20
2023-09-21T18:53:47.546Z,1.25
2023-09-21T18:56:14.646Z,1.25
2023-09-21T18:58:42.202Z,1.48
2023-09-21T19:01:13.343Z,1.60
2023-09-21T19:03:40.957Z,1.58
2023-09-21T19:06:11.620Z,1.35
2023-09-21T19:08:42.056Z,1.50
2023-09-21T19:11:09.221Z,1.55
2023-09-21T19:13:36.369Z,1.40
2023-09-21T19:16:06.435Z,1.50
2023-09-21T19:18:34.476Z,1.30
2023-09-21T19:21:01.645Z,1.25
2023-09-21T19:23:30.546Z,1.20
2023-09-21T19:25:57.934Z,1.80
2023-09-21T19:28:28.555Z,1.60
2023-09-21T19:30:55.913Z,1.88
2023-09-21T19:33:23.907Z,2.42
2023-09-21T19:35:54.977Z,2.00
2023-09-21T19:38:24.666Z,3.08
2023-09-21T19:40:56.976Z,2.97
2023-09-21T19:43:23.971Z,2.80
2023-09-21T19:45:54.743Z,1.70
2023-09-21T19:48:23.903Z,1.30
2023-09-21T19:50:53.360Z,1.33
2023-09-21T19:53:24.913Z,1.13
2023-09-21T19:55:55.734Z,1.27
2023-09-21T19:58:24.767Z,1.05
2023-09-21T20:00:53.791Z,1.40
2023-09-21T20:03:21.931Z,0.73
2023-09-21T20:05:49.063Z,1.15
2023-09-21T20:08:16.085Z,0.68
2023-09-21T20:10:45.246Z,0.65
2023-09-21T20:13:12.175Z,1.20
2023-09-21T20:15:39.265Z,0.70
2023-09-21T20:18:07.394Z,0.60
2023-09-21T20:20:37.841Z,0.73
2023-09-21T20:23:07.813Z,0.70
2023-09-21T20:25:34.713Z,0.80
2023-09-21T20:28:06.145Z,0.70
2023-09-21T20:30:35.586Z,0.90
2023-09-21T20:33:03.132Z,0.90
2023-09-21T20:35:30.180Z,0.73
2023-09-21T20:37:59.572Z,0.90
2023-09-21T20:40:28.636Z,0.50
2023-09-21T20:42:55.749Z,0.95
2023-09-21T20:45:26.902Z,0.70
2023-09-21T20:47:53.960Z,0.40
2023-09-21T20:50:20.980Z,0.50
2023-09-21T20:52:47.996Z,0.60
2023-09-21T20:55:15.964Z,0.50
2023-09-21T20:57:43.054Z,0.52
2023-09-21T21:00:16.299Z,0.38
2023-09-21T21:02:44.468Z,0.38
2023-09-21T21:05:12.008Z,0.50
2023-09-21T21:07:39.038Z,0.55
2023-09-21T21:10:06.889Z,0.38
2023-09-21T21:12:34.403Z,0.50
2023-09-21T21:15:01.473Z,0.45
2023-09-21T21:17:29.875Z,0.40
2023-09-21T21:19:59.157Z,1.35
2023-09-21T21:22:26.189Z,0.40
2023-09-21T21:24:53.184Z,0.50
2023-09-21T21:27:22.491Z,0.57
2023-09-21T21:29:49.525Z,0.60
2023-09-21T21:32:16.587Z,0.60
2023-09-21T21:34:45.660Z,0.50
2023-09-21T21:37:12.631Z,0.60
2023-09-21T21:39:39.596Z,0.50
2023-09-21T21:42:10.592Z,0.40
2023-09-21T21:44:37.569Z,0.52
2023-09-21T21:47:04.535Z,0.60
2023-09-21T21:49:32.351Z,0.70
2023-09-21T21:52:03.079Z,0.50
2023-09-21T21:54:30.206Z,0.50
2023-09-21T21:57:02.570Z,0.50
2023-09-21T21:59:31.808Z,0.55
2023-09-21T22:01:58.807Z,0.68
2023-09-21T22:04:27.882Z,0.43
2023-09-21T22:06:55.778Z,0.50
2023-09-21T22:09:24.918Z,0.88
2023-09-21T22:11:55.227Z,0.50
2023-09-21T22:14:24.420Z,0.47
2023-09-21T22:16:53.851Z,0.50
2023-09-21T22:19:20.942Z,0.80
2023-09-21T22:21:52.065Z,0.55
2023-09-21T22:24:21.528Z,0.50
2023-09-21T22:26:50.592Z,0.70
2023-09-21T22:29:17.518Z,0.40
2023-09-21T22:31:48.062Z,0.50
2023-09-21T22:34:15.035Z,0.40
2023-09-21T22:36:45.112Z,0.70
2023-09-21T22:39:17.408Z,0.68
2023-09-21T22:41:47.471Z,0.88
2023-09-21T22:44:14.738Z,0.40
2023-09-21T22:46:41.731Z,0.38
2023-09-21T22:49:11.245Z,0.43
2023-09-21T22:51:38.309Z,0.47
2023-09-21T22:54:05.412Z,0.60
2023-09-21T22:56:35.090Z,0.60
2023-09-21T22:59:02.074Z,0.50
2023-09-21T23:01:33.580Z,0.52
2023-09-21T23:04:02.922Z,0.52
2023-09-21T23:06:32.321Z,0.50
2023-09-21T23:08:59.463Z,0.40
2023-09-21T23:11:27.244Z,0.30
2023-09-21T23:13:56.564Z,0.60
2023-09-21T23:16:28.387Z,0.30
2023-09-21T23:18:56.056Z,0.30
2023-09-21T23:21:23.204Z,0.30
2023-09-21T23:23:50.299Z,0.30
2023-09-21T23:26:19.758Z,0.40
2023-09-21T23:28:48.888Z,0.40
2023-09-21T23:31:15.811Z,0.40
2023-09-21T23:33:49.145Z,0.20
2023-09-21T23:36:18.992Z,0.30
2023-09-21T23:38:49.180Z,0.30
2023-09-21T23:41:19.601Z,0.40
2023-09-21T23:43:46.703Z,0.38
2023-09-21T23:46:16.661Z,0.35
2023-09-21T23:48:43.789Z,0.40
2023-09-21T23:51:12.919Z,0.30
2023-09-21T23:53:39.892Z,0.30
2023-09-21T23:56:09.035Z,0.40
2023-09-21T23:58:36.052Z,0.30
